sensor_id;sensor_type;location;lat;lon;timestamp;P1;durP1;ratioP1;P2;durP2;ratioP2
76021;SDS011;64718;52.124;6.226;2023-06-19T00:01:38;6.93;;;5.05;;
76021;SDS011;64718;52.124;6.226;2023-06-19T00:04:05;7.45;;;4.80;;
76021;SDS011;64718;52.124;6.226;2023-06-19T00:06:31;6.63;;;5.07;;
76021;SDS011;64718;52.124;6.226;2023-06-19T00:08:58;7.97;;;5.63;;
76021;SDS011;64718;52.124;6.226;2023-06-19T00:11:24;7.75;;;6.07;;
76021;SDS011;64718;52.124;6.226;2023-06-19T00:13:51;6.28;;;5.03;;
76021;SDS011;64718;52.124;6.226;2023-06-19T00:16:20;6.72;;;5.25;;
76021;SDS011;64718;52.124;6.226;2023-06-19T00:18:46;6.43;;;4.65;;
76021;SDS011;64718;52.124;6.226;2023-06-19T00:21:13;7.50;;;6.68;;
76021;SDS011;64718;52.124;6.226;2023-06-19T00:23:39;6.78;;;4.63;;
76021;SDS011;64718;52.124;6.226;2023-06-19T00:26:06;8.10;;;6.20;;
76021;SDS011;64718;52.124;6.226;2023-06-19T00:28:32;6.78;;;4.90;;
76021;SDS011;64718;52.124;6.226;2023-06-19T00:30:59;6.20;;;5.00;;
76021;SDS011;64718;52.124;6.226;2023-06-19T00:33:27;6.78;;;6.03;;
76021;SDS011;64718;52.124;6.226;2023-06-19T00:35:54;7.22;;;4.95;;
76021;SDS011;64718;52.124;6.226;2023-06-19T00:38:20;7.78;;;4.78;;
76021;SDS011;64718;52.124;6.226;2023-06-19T00:40:47;5.63;;;4.40;;
76021;SDS011;64718;52.124;6.226;2023-06-19T00:43:14;7.78;;;5.72;;
76021;SDS011;64718;52.124;6.226;2023-06-19T00:45:40;9.27;;;5.32;;
76021;SDS011;64718;52.124;6.226;2023-06-19T00:48:07;7.68;;;5.13;;
76021;SDS011;64718;52.124;6.226;2023-06-19T00:50:35;9.85;;;6.60;;
76021;SDS011;64718;52.124;6.226;2023-06-19T00:53:02;6.40;;;4.65;;
76021;SDS011;64718;52.124;6.226;2023-06-19T00:55:29;8.48;;;4.90;;
76021;SDS011;64718;52.124;6.226;2023-06-19T00:57:58;8.52;;;5.88;;
76021;SDS011;64718;52.124;6.226;2023-06-19T01:00:26;6.05;;;4.60;;
76021;SDS011;64718;52.124;6.226;2023-06-19T01:02:52;9.70;;;5.20;;
76021;SDS011;64718;52.124;6.226;2023-06-19T01:05:19;6.03;;;4.70;;
76021;SDS011;64718;52.124;6.226;2023-06-19T01:07:48;7.80;;;4.55;;
76021;SDS011;64718;52.124;6.226;2023-06-19T01:10:24;6.88;;;5.60;;
76021;SDS011;64718;52.124;6.226;2023-06-19T01:12:56;7.43;;;5.50;;
76021;SDS011;64718;52.124;6.226;2023-06-19T01:15:25;5.45;;;4.75;;
76021;SDS011;64718;52.124;6.226;2023-06-19T01:17:53;7.85;;;5.38;;
76021;SDS011;64718;52.124;6.226;2023-06-19T01:20:20;4.80;;;3.88;;
76021;SDS011;64718;52.124;6.226;2023-06-19T01:22:48;6.30;;;5.15;;
76021;SDS011;64718;52.124;6.226;2023-06-19T01:25:14;6.82;;;5.35;;
76021;SDS011;64718;52.124;6.226;2023-06-19T01:27:41;5.75;;;3.95;;
76021;SDS011;64718;52.124;6.226;2023-06-19T01:30:08;6.00;;;5.40;;
76021;SDS011;64718;52.124;6.226;2023-06-19T01:32:40;6.03;;;5.07;;
76021;SDS011;64718;52.124;6.226;2023-06-19T01:35:10;6.53;;;4.50;;
76021;SDS011;64718;52.124;6.226;2023-06-19T01:37:41;5.75;;;3.75;;
76021;SDS011;64718;52.124;6.226;2023-06-19T01:40:10;6.40;;;4.65;;
76021;SDS011;64718;52.124;6.226;2023-06-19T01:42:38;6.18;;;4.35;;
76021;SDS011;64718;52.124;6.226;2023-06-19T01:45:06;7.35;;;5.07;;
76021;SDS011;64718;52.124;6.226;2023-06-19T01:47:34;8.38;;;5.38;;
76021;SDS011;64718;52.124;6.226;2023-06-19T01:50:01;6.45;;;4.30;;
76021;SDS011;64718;52.124;6.226;2023-06-19T01:52:28;6.57;;;4.75;;
76021;SDS011;64718;52.124;6.226;2023-06-19T01:54:54;6.50;;;4.30;;
76021;SDS011;64718;52.124;6.226;2023-06-19T01:57:22;6.85;;;4.45;;
76021;SDS011;64718;52.124;6.226;2023-06-19T01:59:49;6.78;;;5.10;;
76021;SDS011;64718;52.124;6.226;2023-06-19T02:02:15;5.80;;;4.22;;
76021;SDS011;64718;52.124;6.226;2023-06-19T02:04:42;5.93;;;4.38;;
76021;SDS011;64718;52.124;6.226;2023-06-19T02:07:08;7.20;;;4.57;;
76021;SDS011;64718;52.124;6.226;2023-06-19T02:09:35;6.40;;;4.25;;
76021;SDS011;64718;52.124;6.226;2023-06-19T02:12:02;6.57;;;4.32;;
76021;SDS011;64718;52.124;6.226;2023-06-19T02:14:30;7.55;;;4.47;;
76021;SDS011;64718;52.124;6.226;2023-06-19T02:16:57;5.68;;;4.88;;
76021;SDS011;64718;52.124;6.226;2023-06-19T02:19:23;6.82;;;4.40;;
76021;SDS011;64718;52.124;6.226;2023-06-19T02:21:50;5.65;;;4.38;;
76021;SDS011;64718;52.124;6.226;2023-06-19T02:24:16;6.95;;;4.22;;
76021;SDS011;64718;52.124;6.226;2023-06-19T02:26:43;6.00;;;5.10;;
76021;SDS011;64718;52.124;6.226;2023-06-19T02:29:10;5.35;;;4.05;;
76021;SDS011;64718;52.124;6.226;2023-06-19T02:31:37;6.00;;;3.88;;
76021;SDS011;64718;52.124;6.226;2023-06-19T02:34:04;5.07;;;3.38;;
76021;SDS011;64718;52.124;6.226;2023-06-19T02:36:30;6.38;;;4.72;;
76021;SDS011;64718;52.124;6.226;2023-06-19T02:38:57;5.03;;;3.70;;
76021;SDS011;64718;52.124;6.226;2023-06-19T02:41:25;3.83;;;2.67;;
76021;SDS011;64718;52.124;6.226;2023-06-19T02:43:51;4.43;;;3.10;;
76021;SDS011;64718;52.124;6.226;2023-06-19T02:46:18;5.45;;;3.60;;
76021;SDS011;64718;52.124;6.226;2023-06-19T02:48:46;5.57;;;2.78;;
76021;SDS011;64718;52.124;6.226;2023-06-19T02:51:12;5.03;;;3.13;;
76021;SDS011;64718;52.124;6.226;2023-06-19T02:53:38;3.72;;;2.38;;
76021;SDS011;64718;52.124;6.226;2023-06-19T02:56:06;4.63;;;2.65;;
76021;SDS011;64718;52.124;6.226;2023-06-19T02:58:33;7.72;;;2.60;;
76021;SDS011;64718;52.124;6.226;2023-06-19T03:01:02;4.28;;;2.65;;
76021;SDS011;64718;52.124;6.226;2023-06-19T03:03:32;4.97;;;2.78;;
76021;SDS011;64718;52.124;6.226;2023-06-19T03:06:03;3.25;;;2.22;;
76021;SDS011;64718;52.124;6.226;2023-06-19T03:08:30;4.63;;;2.40;;
76021;SDS011;64718;52.124;6.226;2023-06-19T03:10:57;4.07;;;2.42;;
76021;SDS011;64718;52.124;6.226;2023-06-19T03:13:24;4.35;;;2.97;;
76021;SDS011;64718;52.124;6.226;2023-06-19T03:15:50;4.88;;;3.13;;
76021;SDS011;64718;52.124;6.226;2023-06-19T03:18:17;3.75;;;2.88;;
76021;SDS011;64718;52.124;6.226;2023-06-19T03:20:43;3.67;;;1.98;;
76021;SDS011;64718;52.124;6.226;2023-06-19T03:23:11;3.67;;;2.00;;
76021;SDS011;64718;52.124;6.226;2023-06-19T03:25:38;4.22;;;2.05;;
76021;SDS011;64718;52.124;6.226;2023-06-19T03:28:07;3.45;;;1.92;;
76021;SDS011;64718;52.124;6.226;2023-06-19T03:30:34;2.92;;;1.60;;
76021;SDS011;64718;52.124;6.226;2023-06-19T03:33:00;3.47;;;1.25;;
76021;SDS011;64718;52.124;6.226;2023-06-19T03:35:27;2.22;;;1.73;;
76021;SDS011;64718;52.124;6.226;2023-06-19T03:37:53;3.00;;;1.27;;
76021;SDS011;64718;52.124;6.226;2023-06-19T03:40:21;1.77;;;1.42;;
76021;SDS011;64718;52.124;6.226;2023-06-19T03:42:48;2.22;;;1.85;;
76021;SDS011;64718;52.124;6.226;2023-06-19T03:45:14;2.50;;;2.08;;
76021;SDS011;64718;52.124;6.226;2023-06-19T03:47:41;3.65;;;1.30;;
76021;SDS011;64718;52.124;6.226;2023-06-19T03:50:08;2.90;;;1.17;;
76021;SDS011;64718;52.124;6.226;2023-06-19T03:52:35;4.93;;;1.70;;
76021;SDS011;64718;52.124;6.226;2023-06-19T03:55:03;2.35;;;1.52;;
76021;SDS011;64718;52.124;6.226;2023-06-19T03:57:31;3.00;;;2.65;;
76021;SDS011;64718;52.124;6.226;2023-06-19T03:59:57;2.50;;;2.15;;
76021;SDS011;64718;52.124;6.226;2023-06-19T04:02:24;2.58;;;1.90;;
76021;SDS011;64718;52.124;6.226;2023-06-19T04:04:51;3.03;;;2.45;;
76021;SDS011;64718;52.124;6.226;2023-06-19T04:07:17;4.60;;;2.20;;
76021;SDS011;64718;52.124;6.226;2023-06-19T04:09:44;2.83;;;2.25;;
76021;SDS011;64718;52.124;6.226;2023-06-19T04:12:10;2.58;;;2.10;;
76021;SDS011;64718;52.124;6.226;2023-06-19T04:14:38;2.65;;;1.80;;
76021;SDS011;64718;52.124;6.226;2023-06-19T04:17:05;2.67;;;1.60;;
76021;SDS011;64718;52.124;6.226;2023-06-19T04:19:31;2.65;;;2.40;;
76021;SDS011;64718;52.124;6.226;2023-06-19T04:21:58;3.17;;;2.15;;
76021;SDS011;64718;52.124;6.226;2023-06-19T04:24:24;2.90;;;2.53;;
76021;SDS011;64718;52.124;6.226;2023-06-19T04:26:51;2.80;;;1.45;;
76021;SDS011;64718;52.124;6.226;2023-06-19T04:29:17;3.83;;;2.00;;
76021;SDS011;64718;52.124;6.226;2023-06-19T04:31:45;2.38;;;1.60;;
76021;SDS011;64718;52.124;6.226;2023-06-19T04:34:13;3.30;;;1.67;;
76021;SDS011;64718;52.124;6.226;2023-06-19T04:36:41;2.95;;;1.67;;
76021;SDS011;64718;52.124;6.226;2023-06-19T04:39:08;2.35;;;1.38;;
76021;SDS011;64718;52.124;6.226;2023-06-19T04:41:35;2.85;;;2.10;;
76021;SDS011;64718;52.124;6.226;2023-06-19T04:44:04;3.22;;;2.20;;
76021;SDS011;64718;52.124;6.226;2023-06-19T04:46:31;2.58;;;1.73;;
76021;SDS011;64718;52.124;6.226;2023-06-19T04:48:59;3.10;;;1.42;;
76021;SDS011;64718;52.124;6.226;2023-06-19T04:51:25;2.78;;;2.00;;
76021;SDS011;64718;52.124;6.226;2023-06-19T04:53:52;2.30;;;1.60;;
76021;SDS011;64718;52.124;6.226;2023-06-19T04:56:18;2.90;;;2.13;;
76021;SDS011;64718;52.124;6.226;2023-06-19T04:58:45;2.28;;;1.48;;
76021;SDS011;64718;52.124;6.226;2023-06-19T05:01:12;3.13;;;2.40;;
76021;SDS011;64718;52.124;6.226;2023-06-19T05:03:39;2.03;;;1.65;;
76021;SDS011;64718;52.124;6.226;2023-06-19T05:06:07;3.28;;;1.45;;
76021;SDS011;64718;52.124;6.226;2023-06-19T05:08:33;2.20;;;1.60;;
76021;SDS011;64718;52.124;6.226;2023-06-19T05:11:00;2.35;;;1.73;;
76021;SDS011;64718;52.124;6.226;2023-06-19T05:13:27;2.60;;;1.70;;
76021;SDS011;64718;52.124;6.226;2023-06-19T05:15:53;2.70;;;1.70;;
76021;SDS011;64718;52.124;6.226;2023-06-19T05:18:21;3.10;;;1.95;;
76021;SDS011;64718;52.124;6.226;2023-06-19T05:20:47;3.58;;;2.10;;
76021;SDS011;64718;52.124;6.226;2023-06-19T05:23:15;6.13;;;2.45;;
76021;SDS011;64718;52.124;6.226;2023-06-19T05:25:41;4.22;;;2.38;;
76021;SDS011;64718;52.124;6.226;2023-06-19T05:28:08;3.28;;;2.38;;
76021;SDS011;64718;52.124;6.226;2023-06-19T05:30:35;2.95;;;1.98;;
76021;SDS011;64718;52.124;6.226;2023-06-19T05:33:01;5.28;;;2.28;;
76021;SDS011;64718;52.124;6.226;2023-06-19T05:35:28;3.65;;;2.92;;
76021;SDS011;64718;52.124;6.226;2023-06-19T05:37:55;2.90;;;2.00;;
76021;SDS011;64718;52.124;6.226;2023-06-19T05:40:23;4.57;;;2.35;;
76021;SDS011;64718;52.124;6.226;2023-06-19T05:42:50;3.80;;;2.50;;
76021;SDS011;64718;52.124;6.226;2023-06-19T05:45:16;3.15;;;2.33;;
76021;SDS011;64718;52.124;6.226;2023-06-19T05:47:43;4.57;;;2.45;;
76021;SDS011;64718;52.124;6.226;2023-06-19T05:50:09;4.28;;;2.78;;
76021;SDS011;64718;52.124;6.226;2023-06-19T05:52:36;4.40;;;3.03;;
76021;SDS011;64718;52.124;6.226;2023-06-19T05:55:07;4.50;;;2.78;;
76021;SDS011;64718;52.124;6.226;2023-06-19T05:57:35;3.42;;;2.60;;
76021;SDS011;64718;52.124;6.226;2023-06-19T06:02:31;4.30;;;2.78;;
76021;SDS011;64718;52.124;6.226;2023-06-19T06:04:57;4.30;;;2.97;;
76021;SDS011;64718;52.124;6.226;2023-06-19T06:07:24;4.95;;;2.92;;
76021;SDS011;64718;52.124;6.226;2023-06-19T06:09:52;4.85;;;2.88;;
76021;SDS011;64718;52.124;6.226;2023-06-19T06:12:19;5.95;;;3.13;;
76021;SDS011;64718;52.124;6.226;2023-06-19T06:14:47;4.22;;;2.72;;
76021;SDS011;64718;52.124;6.226;2023-06-19T06:17:13;3.88;;;2.88;;
76021;SDS011;64718;52.124;6.226;2023-06-19T06:19:40;3.15;;;2.72;;
76021;SDS011;64718;52.124;6.226;2023-06-19T06:22:06;4.25;;;3.17;;
76021;SDS011;64718;52.124;6.226;2023-06-19T06:24:33;4.80;;;3.35;;
76021;SDS011;64718;52.124;6.226;2023-06-19T06:26:59;6.38;;;3.25;;
76021;SDS011;64718;52.124;6.226;2023-06-19T06:29:26;4.07;;;3.13;;
76021;SDS011;64718;52.124;6.226;2023-06-19T06:32:02;4.90;;;3.25;;
76021;SDS011;64718;52.124;6.226;2023-06-19T06:34:30;5.60;;;3.40;;
76021;SDS011;64718;52.124;6.226;2023-06-19T06:36:57;5.95;;;3.45;;
76021;SDS011;64718;52.124;6.226;2023-06-19T06:39:23;7.93;;;3.80;;
76021;SDS011;64718;52.124;6.226;2023-06-19T06:41:50;8.43;;;3.50;;
76021;SDS011;64718;52.124;6.226;2023-06-19T06:44:17;5.72;;;3.70;;
76021;SDS011;64718;52.124;6.226;2023-06-19T06:46:43;6.45;;;4.05;;
76021;SDS011;64718;52.124;6.226;2023-06-19T06:49:12;5.57;;;3.60;;
76021;SDS011;64718;52.124;6.226;2023-06-19T06:51:38;5.20;;;3.80;;
76021;SDS011;64718;52.124;6.226;2023-06-19T06:54:05;4.80;;;3.88;;
76021;SDS011;64718;52.124;6.226;2023-06-19T06:56:31;5.32;;;3.58;;
76021;SDS011;64718;52.124;6.226;2023-06-19T06:58:58;6.95;;;4.25;;
76021;SDS011;64718;52.124;6.226;2023-06-19T07:01:24;7.10;;;4.53;;
76021;SDS011;64718;52.124;6.226;2023-06-19T07:03:51;6.13;;;4.63;;
76021;SDS011;64718;52.124;6.226;2023-06-19T07:06:20;4.57;;;3.55;;
76021;SDS011;64718;52.124;6.226;2023-06-19T07:08:46;9.05;;;5.53;;
76021;SDS011;64718;52.124;6.226;2023-06-19T07:11:13;6.57;;;4.35;;
76021;SDS011;64718;52.124;6.226;2023-06-19T07:13:39;7.75;;;4.80;;
76021;SDS011;64718;52.124;6.226;2023-06-19T07:16:06;6.78;;;4.22;;
76021;SDS011;64718;52.124;6.226;2023-06-19T07:18:33;7.75;;;4.95;;
76021;SDS011;64718;52.124;6.226;2023-06-19T07:21:00;6.15;;;4.85;;
76021;SDS011;64718;52.124;6.226;2023-06-19T07:23:28;8.35;;;5.43;;
76021;SDS011;64718;52.124;6.226;2023-06-19T07:25:55;8.00;;;4.85;;
76021;SDS011;64718;52.124;6.226;2023-06-19T07:28:22;7.30;;;5.28;;
76021;SDS011;64718;52.124;6.226;2023-06-19T07:30:49;7.70;;;4.95;;
76021;SDS011;64718;52.124;6.226;2023-06-19T07:33:17;7.78;;;5.03;;
76021;SDS011;64718;52.124;6.226;2023-06-19T07:35:43;7.03;;;5.20;;
76021;SDS011;64718;52.124;6.226;2023-06-19T07:38:10;7.32;;;4.85;;
76021;SDS011;64718;52.124;6.226;2023-06-19T07:40:38;5.82;;;4.40;;
76021;SDS011;64718;52.124;6.226;2023-06-19T07:43:05;6.50;;;4.70;;
76021;SDS011;64718;52.124;6.226;2023-06-19T07:45:31;7.75;;;5.07;;
76021;SDS011;64718;52.124;6.226;2023-06-19T07:47:58;7.53;;;4.97;;
76021;SDS011;64718;52.124;6.226;2023-06-19T07:50:24;7.78;;;4.60;;
76021;SDS011;64718;52.124;6.226;2023-06-19T07:52:51;7.28;;;5.05;;
76021;SDS011;64718;52.124;6.226;2023-06-19T07:55:17;6.75;;;4.72;;
76021;SDS011;64718;52.124;6.226;2023-06-19T07:57:45;7.07;;;3.80;;
76021;SDS011;64718;52.124;6.226;2023-06-19T08:00:12;6.93;;;3.72;;
76021;SDS011;64718;52.124;6.226;2023-06-19T08:02:39;5.65;;;3.72;;
76021;SDS011;64718;52.124;6.226;2023-06-19T08:05:07;4.18;;;3.33;;
76021;SDS011;64718;52.124;6.226;2023-06-19T08:07:34;5.10;;;3.25;;
76021;SDS011;64718;52.124;6.226;2023-06-19T08:10:01;4.80;;;3.97;;
76021;SDS011;64718;52.124;6.226;2023-06-19T08:12:28;4.18;;;3.75;;
76021;SDS011;64718;52.124;6.226;2023-06-19T08:14:56;4.95;;;3.28;;
76021;SDS011;64718;52.124;6.226;2023-06-19T08:17:23;6.07;;;3.92;;
76021;SDS011;64718;52.124;6.226;2023-06-19T08:19:49;3.45;;;3.13;;
76021;SDS011;64718;52.124;6.226;2023-06-19T08:22:16;5.60;;;3.05;;
76021;SDS011;64718;52.124;6.226;2023-06-19T08:24:42;4.18;;;3.10;;
76021;SDS011;64718;52.124;6.226;2023-06-19T08:27:09;4.82;;;3.78;;
76021;SDS011;64718;52.124;6.226;2023-06-19T08:29:35;6.18;;;4.40;;
76021;SDS011;64718;52.124;6.226;2023-06-19T08:32:03;4.22;;;3.83;;
76021;SDS011;64718;52.124;6.226;2023-06-19T08:34:30;4.53;;;3.63;;
76021;SDS011;64718;52.124;6.226;2023-06-19T08:36:57;5.22;;;3.65;;
76021;SDS011;64718;52.124;6.226;2023-06-19T08:39:23;5.35;;;3.40;;
76021;SDS011;64718;52.124;6.226;2023-06-19T08:41:50;5.45;;;4.22;;
76021;SDS011;64718;52.124;6.226;2023-06-19T08:44:18;6.53;;;3.10;;
76021;SDS011;64718;52.124;6.226;2023-06-19T08:46:44;6.65;;;3.80;;
76021;SDS011;64718;52.124;6.226;2023-06-19T08:49:13;5.28;;;4.82;;
76021;SDS011;64718;52.124;6.226;2023-06-19T08:51:39;7.82;;;4.32;;
76021;SDS011;64718;52.124;6.226;2023-06-19T08:54:07;5.57;;;4.38;;
76021;SDS011;64718;52.124;6.226;2023-06-19T08:56:34;5.82;;;5.25;;
76021;SDS011;64718;52.124;6.226;2023-06-19T08:59:09;6.07;;;4.70;;
76021;SDS011;64718;52.124;6.226;2023-06-19T09:01:36;5.75;;;4.68;;
76021;SDS011;64718;52.124;6.226;2023-06-19T09:04:09;5.78;;;5.18;;
76021;SDS011;64718;52.124;6.226;2023-06-19T09:06:46;6.97;;;5.97;;
76021;SDS011;64718;52.124;6.226;2023-06-19T09:09:13;9.27;;;7.45;;
76021;SDS011;64718;52.124;6.226;2023-06-19T09:11:40;16.27;;;7.45;;
76021;SDS011;64718;52.124;6.226;2023-06-19T09:14:08;12.60;;;6.47;;
76021;SDS011;64718;52.124;6.226;2023-06-19T09:16:38;7.22;;;6.53;;
76021;SDS011;64718;52.124;6.226;2023-06-19T09:19:06;10.43;;;6.22;;
76021;SDS011;64718;52.124;6.226;2023-06-19T09:21:34;8.88;;;5.95;;
76021;SDS011;64718;52.124;6.226;2023-06-19T09:24:03;8.57;;;5.65;;
76021;SDS011;64718;52.124;6.226;2023-06-19T09:26:31;7.47;;;6.72;;
76021;SDS011;64718;52.124;6.226;2023-06-19T12:34:16;6.38;;;5.78;;
76021;SDS011;64718;52.124;6.226;2023-06-19T12:36:43;7.93;;;6.10;;
76021;SDS011;64718;52.124;6.226;2023-06-19T12:39:09;7.43;;;6.72;;
76021;SDS011;64718;52.124;6.226;2023-06-19T12:41:41;6.88;;;6.00;;
76021;SDS011;64718;52.124;6.226;2023-06-19T12:44:08;7.72;;;5.43;;
76021;SDS011;64718;52.124;6.226;2023-06-19T12:46:34;6.78;;;5.47;;
76021;SDS011;64718;52.124;6.226;2023-06-19T12:49:01;6.57;;;5.78;;
76021;SDS011;64718;52.124;6.226;2023-06-19T12:51:29;5.55;;;5.05;;
76021;SDS011;64718;52.124;6.226;2023-06-19T12:53:55;6.20;;;4.40;;
76021;SDS011;64718;52.124;6.226;2023-06-19T12:56:22;5.78;;;5.13;;
76021;SDS011;64718;52.124;6.226;2023-06-19T12:58:48;4.72;;;4.22;;
76021;SDS011;64718;52.124;6.226;2023-06-19T13:01:15;6.25;;;4.85;;
76021;SDS011;64718;52.124;6.226;2023-06-19T13:03:41;5.90;;;5.03;;
76021;SDS011;64718;52.124;6.226;2023-06-19T13:06:08;4.18;;;3.78;;
76021;SDS011;64718;52.124;6.226;2023-06-19T13:08:36;6.25;;;4.75;;
76021;SDS011;64718;52.124;6.226;2023-06-19T13:11:02;5.55;;;5.05;;
76021;SDS011;64718;52.124;6.226;2023-06-19T13:13:29;4.97;;;4.30;;
76021;SDS011;64718;52.124;6.226;2023-06-19T13:15:56;6.55;;;4.63;;
76021;SDS011;64718;52.124;6.226;2023-06-19T13:18:22;4.90;;;4.40;;
76021;SDS011;64718;52.124;6.226;2023-06-19T13:20:49;5.60;;;4.95;;
76021;SDS011;64718;52.124;6.226;2023-06-19T13:23:15;5.45;;;4.95;;
76021;SDS011;64718;52.124;6.226;2023-06-19T13:25:43;4.90;;;4.40;;
76021;SDS011;64718;52.124;6.226;2023-06-19T13:28:10;4.25;;;3.83;;
76021;SDS011;64718;52.124;6.226;2023-06-19T13:30:36;4.18;;;3.78;;
76021;SDS011;64718;52.124;6.226;2023-06-19T13:33:03;4.50;;;4.20;;
76021;SDS011;64718;52.124;6.226;2023-06-19T13:35:29;4.70;;;4.30;;
76021;SDS011;64718;52.124;6.226;2023-06-19T13:37:56;5.07;;;3.80;;
76021;SDS011;64718;52.124;6.226;2023-06-19T13:40:23;3.25;;;2.95;;
76021;SDS011;64718;52.124;6.226;2023-06-19T13:42:51;4.70;;;4.30;;
76021;SDS011;64718;52.124;6.226;2023-06-19T13:45:17;4.55;;;3.85;;
76021;SDS011;64718;52.124;6.226;2023-06-19T13:47:44;5.45;;;5.05;;
76021;SDS011;64718;52.124;6.226;2023-06-19T13:50:10;4.85;;;3.97;;
76021;SDS011;64718;52.124;6.226;2023-06-19T13:52:42;4.97;;;4.47;;
76021;SDS011;64718;52.124;6.226;2023-06-19T13:55:09;4.53;;;4.22;;
76021;SDS011;64718;52.124;6.226;2023-06-19T13:57:36;4.55;;;4.22;;
76021;SDS011;64718;52.124;6.226;2023-06-19T14:00:05;4.68;;;4.28;;
76021;SDS011;64718;52.124;6.226;2023-06-19T14:02:33;5.45;;;4.50;;
76021;SDS011;64718;52.124;6.226;2023-06-19T14:05:00;7.07;;;4.90;;
76021;SDS011;64718;52.124;6.226;2023-06-19T14:07:27;5.05;;;4.38;;
76021;SDS011;64718;52.124;6.226;2023-06-19T14:09:53;5.05;;;4.65;;
76021;SDS011;64718;52.124;6.226;2023-06-19T14:12:20;5.32;;;4.78;;
76021;SDS011;64718;52.124;6.226;2023-06-19T14:14:47;5.68;;;4.53;;
76021;SDS011;64718;52.124;6.226;2023-06-19T14:17:15;4.38;;;3.97;;
76021;SDS011;64718;52.124;6.226;2023-06-19T14:19:41;4.30;;;3.97;;
76021;SDS011;64718;52.124;6.226;2023-06-19T14:22:08;4.40;;;3.72;;
76021;SDS011;64718;52.124;6.226;2023-06-19T14:24:34;6.07;;;5.57;;
76021;SDS011;64718;52.124;6.226;2023-06-19T14:27:01;6.70;;;5.53;;
76021;SDS011;64718;52.124;6.226;2023-06-19T14:29:27;6.30;;;5.70;;
76021;SDS011;64718;52.124;6.226;2023-06-19T14:31:54;5.35;;;4.85;;
76021;SDS011;64718;52.124;6.226;2023-06-19T14:34:22;7.10;;;5.20;;
76021;SDS011;64718;52.124;6.226;2023-06-19T14:36:48;6.30;;;5.70;;
76021;SDS011;64718;52.124;6.226;2023-06-19T14:39:15;5.72;;;4.45;;
76021;SDS011;64718;52.124;6.226;2023-06-19T14:41:41;5.32;;;3.47;;
76021;SDS011;64718;52.124;6.226;2023-06-19T14:44:08;5.45;;;4.95;;
76021;SDS011;64718;52.124;6.226;2023-06-19T14:46:35;5.35;;;4.85;;
76021;SDS011;64718;52.124;6.226;2023-06-19T14:49:04;5.95;;;4.93;;
76021;SDS011;64718;52.124;6.226;2023-06-19T14:51:32;5.60;;;5.10;;
76021;SDS011;64718;52.124;6.226;2023-06-19T14:53:59;5.32;;;4.35;;
76021;SDS011;64718;52.124;6.226;2023-06-19T14:56:26;6.18;;;5.10;;
76021;SDS011;64718;52.124;6.226;2023-06-19T14:58:52;7.35;;;6.18;;
76021;SDS011;64718;52.124;6.226;2023-06-19T15:01:19;6.05;;;5.25;;
76021;SDS011;64718;52.124;6.226;2023-06-19T15:03:45;5.93;;;5.30;;
76021;SDS011;64718;52.124;6.226;2023-06-19T15:06:12;6.25;;;5.53;;
76021;SDS011;64718;52.124;6.226;2023-06-19T15:08:40;6.07;;;5.47;;
76021;SDS011;64718;52.124;6.226;2023-06-19T15:11:06;6.63;;;5.85;;
76021;SDS011;64718;52.124;6.226;2023-06-19T15:13:33;5.20;;;4.60;;
76021;SDS011;64718;52.124;6.226;2023-06-19T15:15:59;6.45;;;5.85;;
76021;SDS011;64718;52.124;6.226;2023-06-19T15:18:27;7.53;;;5.68;;
76021;SDS011;64718;52.124;6.226;2023-06-19T15:20:53;9.27;;;6.85;;
76021;SDS011;64718;52.124;6.226;2023-06-19T15:23:20;7.65;;;4.85;;
76021;SDS011;64718;52.124;6.226;2023-06-19T15:25:48;6.75;;;6.03;;
76021;SDS011;64718;52.124;6.226;2023-06-19T15:28:14;6.00;;;5.35;;
76021;SDS011;64718;52.124;6.226;2023-06-19T15:30:43;6.32;;;4.95;;
76021;SDS011;64718;52.124;6.226;2023-06-19T15:33:10;5.97;;;5.38;;
76021;SDS011;64718;52.124;6.226;2023-06-19T15:35:36;6.43;;;5.72;;
76021;SDS011;64718;52.124;6.226;2023-06-19T15:38:03;7.07;;;6.25;;
76021;SDS011;64718;52.124;6.226;2023-06-19T15:40:29;7.45;;;6.85;;
76021;SDS011;64718;52.124;6.226;2023-06-19T15:42:57;6.72;;;5.72;;
76021;SDS011;64718;52.124;6.226;2023-06-19T15:45:24;6.43;;;5.80;;
76021;SDS011;64718;52.124;6.226;2023-06-19T15:47:51;7.70;;;6.05;;
76021;SDS011;64718;52.124;6.226;2023-06-19T15:50:18;6.72;;;5.85;;
76021;SDS011;64718;52.124;6.226;2023-06-19T15:52:44;6.82;;;6.15;;
76021;SDS011;64718;52.124;6.226;2023-06-19T15:55:12;6.68;;;5.97;;
76021;SDS011;64718;52.124;6.226;2023-06-19T15:57:38;7.70;;;5.65;;
76021;SDS011;64718;52.124;6.226;2023-06-19T16:00:07;6.75;;;5.75;;
76021;SDS011;64718;52.124;6.226;2023-06-19T16:02:36;6.43;;;5.82;;
76021;SDS011;64718;52.124;6.226;2023-06-19T16:05:03;7.20;;;5.13;;
76021;SDS011;64718;52.124;6.226;2023-06-19T16:07:30;6.43;;;5.55;;
76021;SDS011;64718;52.124;6.226;2023-06-19T16:09:56;6.43;;;5.80;;
76021;SDS011;64718;52.124;6.226;2023-06-19T16:12:23;6.28;;;5.65;;
76021;SDS011;64718;52.124;6.226;2023-06-19T16:14:50;6.15;;;5.65;;
76021;SDS011;64718;52.124;6.226;2023-06-19T16:17:18;6.57;;;5.90;;
76021;SDS011;64718;52.124;6.226;2023-06-19T16:19:44;6.18;;;5.57;;
76021;SDS011;64718;52.124;6.226;2023-06-19T16:22:11;6.05;;;5.45;;
76021;SDS011;64718;52.124;6.226;2023-06-19T16:24:37;5.28;;;4.78;;
76021;SDS011;64718;52.124;6.226;2023-06-19T16:27:05;5.70;;;4.80;;
76021;SDS011;64718;52.124;6.226;2023-06-19T16:29:32;5.45;;;4.88;;
76021;SDS011;64718;52.124;6.226;2023-06-19T16:31:58;4.93;;;4.50;;
76021;SDS011;64718;52.124;6.226;2023-06-19T16:34:26;5.07;;;4.57;;
76021;SDS011;64718;52.124;6.226;2023-06-19T16:36:53;6.07;;;5.38;;
76021;SDS011;64718;52.124;6.226;2023-06-19T16:39:19;5.93;;;5.20;;
76021;SDS011;64718;52.124;6.226;2023-06-19T16:41:47;7.40;;;5.53;;
76021;SDS011;64718;52.124;6.226;2023-06-19T16:44:13;7.00;;;4.90;;
76021;SDS011;64718;52.124;6.226;2023-06-19T16:46:40;7.85;;;5.88;;
76021;SDS011;64718;52.124;6.226;2023-06-19T16:49:06;6.38;;;5.50;;
76021;SDS011;64718;52.124;6.226;2023-06-19T16:51:34;6.60;;;6.00;;
76021;SDS011;64718;52.124;6.226;2023-06-19T16:54:00;6.13;;;5.53;;
76021;SDS011;64718;52.124;6.226;2023-06-19T16:56:27;6.45;;;5.85;;
76021;SDS011;64718;52.124;6.226;2023-06-19T16:58:54;8.82;;;6.53;;
76021;SDS011;64718;52.124;6.226;2023-06-19T17:01:20;7.00;;;5.90;;
76021;SDS011;64718;52.124;6.226;2023-06-19T17:03:46;6.90;;;6.05;;
76021;SDS011;64718;52.124;6.226;2023-06-19T17:06:13;6.90;;;6.20;;
76021;SDS011;64718;52.124;6.226;2023-06-19T17:08:41;6.30;;;5.50;;
76021;SDS011;64718;52.124;6.226;2023-06-19T17:11:08;6.18;;;5.57;;
76021;SDS011;64718;52.124;6.226;2023-06-19T17:13:34;6.13;;;5.30;;
76021;SDS011;64718;52.124;6.226;2023-06-19T17:16:01;5.40;;;4.22;;
76021;SDS011;64718;52.124;6.226;2023-06-19T17:18:27;7.00;;;5.22;;
76021;SDS011;64718;52.124;6.226;2023-06-19T17:20:54;6.90;;;4.70;;
76021;SDS011;64718;52.124;6.226;2023-06-19T17:23:20;5.65;;;4.30;;
76021;SDS011;64718;52.124;6.226;2023-06-19T17:25:48;5.65;;;4.82;;
76021;SDS011;64718;52.124;6.226;2023-06-19T17:28:15;6.88;;;4.63;;
76021;SDS011;64718;52.124;6.226;2023-06-19T17:30:42;14.93;;;6.68;;
76021;SDS011;64718;52.124;6.226;2023-06-19T17:33:08;5.35;;;4.85;;
76021;SDS011;64718;52.124;6.226;2023-06-19T17:35:35;5.72;;;5.13;;
76021;SDS011;64718;52.124;6.226;2023-06-19T17:38:02;6.80;;;5.07;;
76021;SDS011;64718;52.124;6.226;2023-06-19T17:40:28;6.25;;;5.30;;
76021;SDS011;64718;52.124;6.226;2023-06-19T17:42:56;6.20;;;5.35;;
76021;SDS011;64718;52.124;6.226;2023-06-19T17:45:23;6.07;;;5.38;;
76021;SDS011;64718;52.124;6.226;2023-06-19T17:47:49;6.53;;;4.28;;
76021;SDS011;64718;52.124;6.226;2023-06-19T17:50:16;5.63;;;4.80;;
76021;SDS011;64718;52.124;6.226;2023-06-19T17:52:42;5.90;;;5.05;;
76021;SDS011;64718;52.124;6.226;2023-06-19T17:55:09;6.55;;;4.70;;